createdAt,value
2023-03-15T00:00:53.279Z,62.63
2023-03-15T00:01:53.270Z,62.63
2023-03-15T00:02:53.408Z,62.63
2023-03-15T00:03:53.294Z,62.53
2023-03-15T00:04:53.249Z,62.63
2023-03-15T00:05:53.273Z,62.63
2023-03-15T00:06:53.212Z,62.63
2023-03-15T00:07:53.207Z,62.63
2023-03-15T00:08:53.194Z,62.63
2023-03-15T00:09:53.186Z,62.63
2023-03-15T00:10:53.191Z,62.63
2023-03-15T00:11:53.167Z,62.63
2023-03-15T00:12:53.148Z,62.63
2023-03-15T00:13:53.164Z,62.63
2023-03-15T00:14:53.127Z,62.63
2023-03-15T00:15:53.211Z,62.63
2023-03-15T00:16:53.110Z,62.63
2023-03-15T00:17:53.100Z,62.63
2023-03-15T00:18:53.090Z,62.63
2023-03-15T00:19:53.084Z,62.53
2023-03-15T00:20:53.091Z,62.63
2023-03-15T00:21:53.076Z,62.66
2023-03-15T00:22:53.043Z,62.63
2023-03-15T00:23:53.041Z,62.63
2023-03-15T00:24:53.024Z,62.63
2023-03-15T00:25:53.010Z,62.66
2023-03-15T00:26:53.037Z,62.63
2023-03-15T00:27:52.988Z,62.66
2023-03-15T00:28:52.985Z,62.63
2023-03-15T00:29:52.987Z,62.63
2023-03-15T00:30:53.098Z,62.66
2023-03-15T00:31:52.946Z,62.66
2023-03-15T00:32:52.988Z,62.66
2023-03-15T00:33:52.924Z,62.66
2023-03-15T00:34:52.919Z,62.63
2023-03-15T00:35:52.973Z,62.63
2023-03-15T00:36:52.894Z,62.66
2023-03-15T00:37:52.933Z,62.63
2023-03-15T00:38:52.878Z,62.66
2023-03-15T00:39:52.865Z,62.66
2023-03-15T00:40:52.851Z,62.63
2023-03-15T00:41:52.838Z,62.66
2023-03-15T00:42:52.834Z,62.66
2023-03-15T00:43:52.854Z,62.56
2023-03-15T00:44:52.812Z,62.66
2023-03-15T00:45:52.797Z,62.66
2023-03-15T00:46:52.887Z,62.66
2023-03-15T00:47:52.778Z,62.66
2023-03-15T00:48:52.793Z,62.66
2023-03-15T00:49:52.754Z,62.66
2023-03-15T00:50:52.744Z,62.63
2023-03-15T00:51:52.737Z,62.66
2023-03-15T00:52:52.721Z,62.66
2023-03-15T00:53:52.762Z,62.63
2023-03-15T00:54:52.700Z,62.56
2023-03-15T00:55:52.692Z,62.66
2023-03-15T00:56:52.679Z,62.66
2023-03-15T00:57:52.671Z,62.66
2023-03-15T00:58:52.683Z,62.66
2023-03-15T00:59:52.650Z,62.66
2023-03-15T01:00:52.638Z,62.66
2023-03-15T01:01:52.666Z,62.66
2023-03-15T01:02:52.825Z,62.66
2023-03-15T01:03:52.605Z,62.66
2023-03-15T01:04:52.593Z,62.66
2023-03-15T01:05:52.590Z,62.66
2023-03-15T01:06:52.595Z,62.76
2023-03-15T01:07:52.575Z,62.76
2023-03-15T01:08:52.552Z,62.66
2023-03-15T01:09:52.569Z,62.63
2023-03-15T01:10:52.529Z,62.66
2023-03-15T01:11:52.539Z,62.66
2023-03-15T01:12:52.507Z,62.76
2023-03-15T01:13:52.500Z,62.66
2023-03-15T01:14:52.504Z,62.76
2023-03-15T01:15:52.511Z,62.66
2023-03-15T01:16:52.509Z,62.66
2023-03-15T01:17:52.468Z,62.66
2023-03-15T01:18:52.454Z,62.76
2023-03-15T01:19:52.459Z,62.66
2023-03-15T01:20:52.422Z,62.66
2023-03-15T01:21:52.413Z,62.66
2023-03-15T01:22:52.404Z,62.66
2023-03-15T01:23:52.390Z,62.66
2023-03-15T01:24:52.406Z,62.66
2023-03-15T01:25:52.402Z,62.66
2023-03-15T01:26:52.369Z,62.66
2023-03-15T01:27:52.353Z,62.66
2023-03-15T01:28:52.378Z,62.66
2023-03-15T01:29:52.340Z,62.66
2023-03-15T01:30:52.332Z,62.66
2023-03-15T01:31:52.348Z,62.66
2023-03-15T01:32:52.382Z,62.66
2023-03-15T01:33:52.286Z,62.66
2023-03-15T01:34:52.293Z,62.66
2023-03-15T01:35:52.335Z,62.66
2023-03-15T01:36:52.271Z,62.66
2023-03-15T01:37:52.240Z,62.66
2023-03-15T01:38:52.230Z,62.66
2023-03-15T01:39:52.218Z,62.66
2023-03-15T01:40:52.229Z,62.66
2023-03-15T01:41:52.319Z,62.66
2023-03-15T01:42:52.194Z,62.66
2023-03-15T01:43:52.178Z,62.66
2023-03-15T01:44:52.186Z,62.66
2023-03-15T01:45:52.174Z,62.66
2023-03-15T01:46:52.215Z,62.66
2023-03-15T01:47:52.136Z,62.66
2023-03-15T01:48:52.126Z,62.66
2023-03-15T01:49:52.114Z,62.66
2023-03-15T01:50:52.125Z,62.66
2023-03-15T01:51:52.111Z,62.66
2023-03-15T01:52:52.101Z,62.66
2023-03-15T01:53:52.075Z,62.66
2023-03-15T01:54:52.060Z,62.66
2023-03-15T01:55:52.052Z,62.66
2023-03-15T01:56:52.060Z,62.66
2023-03-15T01:57:52.083Z,62.66
2023-03-15T01:58:52.017Z,62.56
2023-03-15T01:59:52.012Z,62.66
2023-03-15T02:00:52.062Z,62.66
2023-03-15T02:01:52.072Z,62.66
2023-03-15T02:02:51.980Z,62.66
2023-03-15T02:03:51.982Z,62.66
2023-03-15T02:04:51.971Z,62.66
2023-03-15T02:05:51.942Z,62.66
2023-03-15T02:06:51.930Z,62.66
2023-03-15T02:07:51.921Z,62.66
2023-03-15T02:08:51.938Z,62.66
2023-03-15T02:09:51.902Z,62.66
2023-03-15T02:10:51.894Z,62.66
2023-03-15T02:11:51.923Z,62.66
2023-03-15T02:12:51.905Z,62.66
2023-03-15T02:13:51.880Z,62.66
2023-03-15T02:14:51.861Z,62.66
2023-03-15T02:15:51.835Z,62.66
2023-03-15T02:16:51.833Z,62.66
2023-03-15T02:17:51.852Z,62.66
2023-03-15T02:18:51.801Z,62.66
2023-03-15T02:19:51.817Z,62.66
2023-03-15T02:20:51.783Z,62.66
2023-03-15T02:21:51.771Z,62.66
2023-03-15T02:22:51.762Z,62.66
2023-03-15T02:23:51.752Z,62.66
2023-03-15T02:24:51.758Z,62.56
2023-03-15T02:25:51.728Z,62.66
2023-03-15T02:26:51.910Z,62.66
2023-03-15T02:27:51.706Z,62.66
2023-03-15T02:28:51.729Z,62.66
2023-03-15T02:29:51.715Z,62.66
2023-03-15T02:30:51.677Z,62.66
2023-03-15T02:31:51.696Z,62.66
2023-03-15T02:32:51.696Z,62.66
2023-03-15T02:33:51.658Z,62.66
2023-03-15T02:34:51.660Z,62.66
2023-03-15T02:35:51.637Z,62.66
2023-03-15T02:36:51.637Z,62.56
2023-03-15T02:37:51.607Z,62.66
2023-03-15T02:38:51.591Z,62.66
2023-03-15T02:39:51.579Z,62.66
2023-03-15T02:40:51.569Z,62.66
2023-03-15T02:41:51.585Z,62.66
2023-03-15T02:42:51.550Z,62.66
2023-03-15T02:43:51.538Z,62.66
2023-03-15T02:44:51.528Z,62.66
2023-03-15T02:45:51.577Z,62.66
2023-03-15T02:46:51.551Z,62.66
2023-03-15T02:47:51.497Z,62.66
2023-03-15T02:48:51.488Z,62.66
2023-03-15T02:49:51.476Z,62.66
2023-03-15T02:50:51.485Z,62.66
2023-03-15T02:51:51.469Z,62.66
2023-03-15T02:52:51.461Z,62.66
2023-03-15T02:53:51.450Z,62.66
2023-03-15T02:54:51.439Z,62.66
2023-03-15T02:55:51.412Z,62.66
2023-03-15T02:56:51.423Z,62.66
2023-03-15T02:57:51.389Z,62.66
2023-03-15T02:58:51.382Z,62.66
2023-03-15T02:59:51.393Z,62.66
2023-03-15T03:00:51.400Z,62.66
2023-03-15T03:01:51.371Z,62.66
2023-03-15T03:02:51.356Z,62.66
2023-03-15T03:03:51.328Z,62.66
2023-03-15T03:04:51.324Z,62.66
2023-03-15T03:05:51.306Z,62.66
2023-03-15T03:06:51.326Z,62.66
2023-03-15T03:07:51.290Z,62.66
2023-03-15T03:08:51.278Z,62.66
2023-03-15T03:09:51.275Z,62.66
2023-03-15T03:10:51.256Z,62.66
2023-03-15T03:11:51.266Z,62.66
2023-03-15T03:12:51.236Z,62.66
2023-03-15T03:13:51.232Z,62.66
2023-03-15T03:14:51.213Z,62.66
2023-03-15T03:15:51.219Z,62.66
2023-03-15T03:16:51.268Z,62.66
2023-03-15T03:17:51.203Z,62.66
2023-03-15T03:18:51.168Z,62.66
2023-03-15T03:19:51.164Z,62.66
2023-03-15T03:20:51.181Z,62.66
2023-03-15T03:21:51.174Z,62.66
2023-03-15T03:22:51.126Z,62.66
2023-03-15T03:23:51.113Z,62.66
2023-03-15T03:24:51.101Z,62.66
2023-03-15T03:25:51.090Z,62.66
2023-03-15T03:26:51.080Z,62.66
2023-03-15T03:27:51.089Z,62.66
2023-03-15T03:28:51.059Z,62.66
2023-03-15T03:29:51.068Z,62.66
2023-03-15T03:30:51.079Z,62.66
2023-03-15T03:31:51.025Z,62.66
2023-03-15T03:32:51.077Z,62.66
2023-03-15T03:33:51.028Z,62.66
2023-03-15T03:34:51.014Z,62.66
2023-03-15T03:35:51.043Z,62.66
2023-03-15T03:36:50.980Z,62.66
2023-03-15T03:37:50.962Z,62.66
2023-03-15T03:38:50.949Z,62.66
2023-03-15T03:39:50.957Z,62.66
2023-03-15T03:40:50.931Z,62.66
2023-03-15T03:41:50.919Z,62.66
2023-03-15T03:42:50.909Z,62.66
2023-03-15T03:43:50.928Z,62.66
2023-03-15T03:44:50.886Z,62.56
2023-03-15T03:45:51.002Z,62.66
2023-03-15T03:46:50.919Z,62.66
2023-03-15T03:47:50.879Z,62.66
2023-03-15T03:48:50.847Z,62.66
2023-03-15T03:49:50.856Z,62.66
2023-03-15T03:50:50.820Z,62.66
2023-03-15T03:51:50.829Z,62.56
2023-03-15T03:52:50.818Z,62.66
2023-03-15T03:53:50.788Z,62.56
2023-03-15T03:54:50.783Z,62.56
2023-03-15T03:55:50.766Z,62.56
2023-03-15T03:56:50.760Z,62.56
2023-03-15T03:57:50.769Z,62.56
2023-03-15T03:58:50.759Z,62.56
2023-03-15T03:59:50.739Z,62.56
2023-03-15T04:00:50.711Z,62.56
2023-03-15T04:01:50.702Z,62.56
2023-03-15T04:02:50.735Z,62.56
2023-03-15T04:03:50.681Z,62.56
2023-03-15T04:04:50.787Z,62.56
2023-03-15T04:05:50.700Z,62.56
2023-03-15T04:06:50.649Z,62.56
2023-03-15T04:07:50.666Z,62.56
2023-03-15T04:08:50.625Z,62.56
2023-03-15T04:09:50.626Z,62.56
2023-03-15T04:10:50.632Z,62.56
2023-03-15T04:11:50.597Z,62.56
2023-03-15T04:12:50.583Z,62.56
2023-03-15T04:13:50.588Z,62.56
2023-03-15T04:14:50.561Z,62.56
2023-03-15T04:15:50.701Z,62.56
2023-03-15T04:16:50.544Z,62.56
2023-03-15T04:17:50.530Z,62.56
2023-03-15T04:18:50.521Z,62.56
2023-03-15T04:19:50.509Z,62.56
2023-03-15T04:20:50.498Z,62.56
2023-03-15T04:21:50.536Z,62.56
2023-03-15T04:22:50.484Z,62.56
2023-03-15T04:23:50.466Z,62.56
2023-03-15T04:24:50.461Z,62.56
2023-03-15T04:25:50.467Z,62.56
2023-03-15T04:26:50.435Z,62.56
2023-03-15T04:27:50.425Z,62.56
2023-03-15T04:28:50.418Z,62.56
2023-03-15T04:29:50.406Z,62.56
2023-03-15T04:30:50.394Z,62.56
2023-03-15T04:31:50.420Z,62.56
2023-03-15T04:32:50.526Z,62.56
2023-03-15T04:33:50.370Z,62.56
2023-03-15T04:34:50.373Z,62.56
2023-03-15T04:35:50.379Z,62.46
2023-03-15T04:36:50.333Z,62.46
2023-03-15T04:37:50.344Z,62.46
2023-03-15T04:38:50.320Z,62.56
2023-03-15T04:39:50.321Z,62.56
2023-03-15T04:40:50.310Z,62.56
2023-03-15T04:41:50.278Z,62.46
2023-03-15T04:42:50.271Z,62.56
2023-03-15T04:43:50.259Z,62.56
2023-03-15T04:44:50.252Z,62.46
2023-03-15T04:45:50.260Z,62.46
2023-03-15T04:46:50.312Z,62.46
2023-03-15T04:47:50.219Z,62.56
2023-03-15T04:48:50.209Z,62.46
2023-03-15T04:49:50.196Z,62.56
2023-03-15T04:50:50.208Z,62.56
2023-03-15T04:51:50.180Z,62.56
2023-03-15T04:52:50.168Z,62.56
2023-03-15T04:53:50.200Z,62.56
2023-03-15T04:54:50.146Z,62.56
2023-03-15T04:55:50.134Z,62.56
2023-03-15T04:56:50.140Z,62.56
2023-03-15T04:57:50.120Z,62.56
2023-03-15T04:58:50.143Z,62.56
2023-03-15T04:59:50.093Z,62.56
2023-03-15T05:00:50.145Z,62.56
2023-03-15T05:01:50.122Z,62.56
2023-03-15T05:02:50.064Z,62.56
2023-03-15T05:03:50.051Z,62.46
2023-03-15T05:04:50.037Z,62.56
2023-03-15T05:05:50.030Z,62.46
2023-03-15T05:06:50.042Z,62.56
2023-03-15T05:07:50.024Z,62.46
2023-03-15T05:08:50.001Z,62.56
2023-03-15T05:09:50.006Z,62.56
2023-03-15T05:10:49.970Z,62.56
2023-03-15T05:11:49.969Z,62.56
2023-03-15T05:12:49.982Z,62.56
2023-03-15T05:13:49.942Z,62.56
2023-03-15T05:14:49.977Z,62.56
2023-03-15T05:15:49.922Z,62.46
2023-03-15T05:16:49.907Z,62.46
2023-03-15T05:17:49.924Z,62.56
2023-03-15T05:18:49.895Z,62.46
2023-03-15T05:19:49.897Z,62.56
2023-03-15T05:20:49.871Z,62.46
2023-03-15T05:21:49.859Z,62.46
2023-03-15T05:22:49.880Z,62.46
2023-03-15T05:23:49.831Z,62.46
2023-03-15T05:24:49.850Z,62.46
2023-03-15T05:25:49.834Z,62.46
2023-03-15T05:26:49.802Z,62.46
2023-03-15T05:27:49.791Z,62.46
2023-03-15T05:28:49.810Z,62.46
2023-03-15T05:29:49.771Z,62.46
2023-03-15T05:30:49.765Z,62.46
2023-03-15T05:31:49.811Z,62.46
2023-03-15T05:32:49.822Z,62.46
2023-03-15T05:33:49.748Z,62.46
2023-03-15T05:34:49.716Z,62.46
2023-03-15T05:35:49.767Z,62.46
2023-03-15T05:36:49.697Z,62.46
2023-03-15T05:37:49.712Z,62.46
2023-03-15T05:38:49.675Z,62.46
2023-03-15T05:39:49.660Z,62.46
2023-03-15T05:40:49.656Z,62.46
2023-03-15T05:41:49.674Z,62.46
2023-03-15T05:42:49.630Z,62.46
2023-03-15T05:43:49.639Z,62.46
2023-03-15T05:44:49.612Z,62.46
2023-03-15T05:45:49.683Z,62.46
2023-03-15T05:46:49.591Z,62.46
2023-03-15T05:47:49.583Z,62.46
2023-03-15T05:48:49.570Z,62.46
2023-03-15T05:49:49.557Z,62.46
2023-03-15T05:50:49.570Z,62.46
2023-03-15T05:51:49.542Z,62.46
2023-03-15T05:52:49.542Z,62.46
2023-03-15T05:53:49.517Z,62.46
2023-03-15T05:54:49.499Z,62.46
2023-03-15T05:55:49.488Z,62.46
2023-03-15T05:56:49.481Z,62.46
2023-03-15T05:57:49.512Z,62.46
2023-03-15T05:58:49.462Z,62.46
2023-03-15T05:59:49.450Z,62.46
2023-03-15T06:00:49.436Z,62.46
2023-03-15T06:01:49.424Z,62.46
2023-03-15T06:02:49.439Z,62.46
2023-03-15T06:03:49.636Z,62.46
2023-03-15T06:04:49.388Z,62.46
2023-03-15T06:05:49.381Z,62.46
2023-03-15T06:06:49.382Z,62.46
2023-03-15T06:07:49.392Z,62.46
2023-03-15T06:08:49.373Z,62.46
2023-03-15T06:09:49.362Z,62.46
2023-03-15T06:10:49.326Z,62.46
2023-03-15T06:11:49.334Z,62.46
2023-03-15T06:12:49.305Z,62.46
2023-03-15T06:13:49.339Z,62.46
2023-03-15T06:14:49.288Z,62.46
2023-03-15T06:15:49.275Z,62.46
2023-03-15T06:16:49.304Z,62.46
2023-03-15T06:17:49.258Z,62.46
2023-03-15T06:18:49.280Z,62.46
2023-03-15T06:19:49.249Z,62.46
2023-03-15T06:20:49.219Z,62.46
2023-03-15T06:21:49.230Z,62.46
2023-03-15T06:22:49.199Z,62.46
2023-03-15T06:23:49.188Z,62.35
2023-03-15T06:24:49.177Z,62.46
2023-03-15T06:25:49.164Z,62.46
2023-03-15T06:26:49.188Z,62.46
2023-03-15T06:27:49.141Z,62.46
2023-03-15T06:28:49.132Z,62.35
2023-03-15T06:29:49.145Z,62.35
2023-03-15T06:30:49.150Z,62.35
2023-03-15T06:31:49.099Z,62.35
2023-03-15T06:32:49.240Z,62.35
2023-03-15T06:33:49.098Z,62.35
2023-03-15T06:34:49.084Z,62.35
2023-03-15T06:35:49.074Z,62.35
2023-03-15T06:36:49.065Z,62.35
2023-03-15T06:37:49.035Z,62.35
2023-03-15T06:38:49.029Z,62.35
2023-03-15T06:39:49.014Z,62.35
2023-03-15T06:40:49.004Z,62.35
2023-03-15T06:41:49.031Z,62.35
2023-03-15T06:42:48.982Z,62.35
2023-03-15T06:43:48.975Z,62.35
2023-03-15T06:44:51.122Z,62.35
2023-03-15T06:45:49.060Z,62.35
2023-03-15T06:46:48.942Z,62.35
2023-03-15T06:47:48.950Z,62.35
2023-03-15T06:48:48.922Z,62.35
2023-03-15T06:49:48.905Z,62.35
2023-03-15T06:50:48.921Z,62.35
2023-03-15T06:51:48.886Z,62.35
2023-03-15T06:52:48.872Z,62.35
2023-03-15T06:53:48.865Z,62.35
2023-03-15T06:54:48.853Z,62.35
2023-03-15T06:55:48.845Z,62.35
2023-03-15T06:56:48.857Z,62.35
2023-03-15T06:57:48.824Z,62.35
2023-03-15T06:58:48.841Z,62.35
2023-03-15T06:59:48.799Z,62.35
2023-03-15T07:00:48.787Z,62.35
2023-03-15T07:01:48.918Z,62.35
2023-03-15T07:02:48.902Z,62.35
2023-03-15T07:03:48.761Z,62.35
2023-03-15T07:04:48.774Z,62.35
2023-03-15T07:05:48.756Z,62.35
2023-03-15T07:06:48.758Z,62.35
2023-03-15T07:07:48.715Z,62.26
2023-03-15T07:08:48.705Z,62.35
2023-03-15T07:09:48.697Z,62.35
2023-03-15T07:10:48.718Z,62.35
2023-03-15T07:11:48.673Z,62.35
2023-03-15T07:12:48.664Z,62.35
2023-03-15T07:13:48.655Z,62.35
2023-03-15T07:14:48.644Z,62.35
2023-03-15T07:15:48.728Z,62.26
2023-03-15T07:16:48.626Z,62.35
2023-03-15T07:17:48.638Z,62.26
2023-03-15T07:18:48.603Z,62.26
2023-03-15T07:19:56.299Z,62.26
2023-03-15T07:20:49.601Z,62.26
2023-03-15T07:21:48.569Z,62.26
2023-03-15T07:22:48.556Z,62.15
2023-03-15T07:23:48.555Z,62.15
2023-03-15T07:24:48.548Z,62.15
2023-03-15T07:25:55.036Z,62.15
2023-03-15T07:26:49.513Z,62.15
2023-03-15T07:27:48.506Z,62.15
2023-03-15T07:28:48.503Z,62.15
2023-03-15T07:29:48.488Z,62.15
2023-03-15T07:30:48.475Z,62.15
2023-03-15T07:31:48.497Z,62.15
2023-03-15T07:32:48.612Z,62.15
2023-03-15T07:33:48.467Z,62.26
2023-03-15T07:34:48.437Z,62.26
2023-03-15T07:35:48.490Z,62.26
2023-03-15T07:36:48.406Z,62.26
2023-03-15T07:37:48.413Z,62.26
2023-03-15T07:38:48.407Z,62.26
2023-03-15T07:39:48.374Z,62.26
2023-03-15T07:40:48.404Z,62.26
2023-03-15T07:41:48.355Z,62.26
2023-03-15T07:42:48.339Z,62.15
2023-03-15T07:43:48.331Z,62.26
2023-03-15T07:44:48.348Z,62.15
2023-03-15T07:45:48.306Z,62.15
2023-03-15T07:46:48.318Z,62.05
2023-03-15T07:47:48.291Z,62.05
2023-03-15T07:48:48.307Z,62.05
2023-03-15T07:49:48.298Z,62.05
2023-03-15T07:50:48.252Z,62.05
2023-03-15T07:51:48.270Z,61.95
2023-03-15T07:52:48.258Z,61.95
2023-03-15T07:53:48.227Z,61.95
2023-03-15T07:54:48.209Z,61.95
2023-03-15T07:55:48.223Z,62.05
2023-03-15T07:56:48.187Z,62.05
2023-03-15T07:57:50.319Z,62.05
2023-03-15T07:58:48.168Z,62.05
2023-03-15T07:59:48.160Z,62.05
2023-03-15T08:00:48.164Z,62.15
2023-03-15T08:01:48.211Z,62.15
2023-03-15T08:02:48.160Z,62.15
2023-03-15T08:03:48.146Z,62.15
2023-03-15T08:04:48.101Z,62.15
2023-03-15T08:05:48.118Z,62.15
2023-03-15T08:06:48.105Z,62.15
2023-03-15T08:07:48.089Z,62.15
2023-03-15T08:08:48.059Z,62.15
2023-03-15T08:09:48.062Z,62.15
2023-03-15T08:10:48.038Z,62.15
2023-03-15T08:11:48.025Z,62.15
2023-03-15T08:12:48.035Z,62.15
2023-03-15T08:13:48.002Z,62.15
2023-03-15T08:14:47.992Z,62.15
2023-03-15T08:15:47.982Z,62.15
2023-03-15T08:16:48.071Z,62.15
2023-03-15T08:17:47.980Z,62.26
2023-03-15T08:18:47.949Z,62.26
2023-03-15T08:19:47.942Z,62.26
2023-03-15T08:20:47.935Z,62.15
2023-03-15T08:21:47.954Z,62.15
2023-03-15T08:22:47.928Z,62.15
2023-03-15T08:23:47.902Z,62.05
2023-03-15T08:24:47.883Z,62.05
2023-03-15T08:25:47.877Z,62.05
2023-03-15T08:26:47.878Z,62.05
2023-03-15T08:27:47.872Z,61.95
2023-03-15T08:28:47.846Z,61.95
2023-03-15T08:29:47.836Z,61.65
2023-03-15T08:30:47.824Z,61.65
2023-03-15T08:31:47.880Z,61.75
2023-03-15T08:32:47.935Z,61.85
2023-03-15T08:33:47.789Z,61.85
2023-03-15T08:34:47.782Z,61.95
2023-03-15T08:35:47.877Z,61.95
2023-03-15T08:36:47.927Z,62.05
2023-03-15T08:37:48.006Z,62.05
2023-03-15T08:38:47.754Z,62.05
2023-03-15T08:39:47.721Z,62.15
2023-03-15T08:40:47.712Z,62.05
2023-03-15T08:41:47.725Z,61.95
2023-03-15T08:42:47.692Z,61.95
2023-03-15T08:43:47.681Z,61.95
2023-03-15T08:44:47.689Z,61.95
2023-03-15T08:46:00.339Z,61.95
2023-03-15T08:46:48.735Z,61.95
2023-03-15T08:47:47.643Z,61.95
2023-03-15T08:48:47.646Z,61.95
2023-03-15T08:49:47.615Z,61.95
2023-03-15T08:50:47.600Z,61.95
2023-03-15T08:51:47.592Z,61.95
2023-03-15T08:52:47.607Z,61.95
2023-03-15T08:53:47.612Z,61.95
2023-03-15T08:54:47.556Z,61.95
2023-03-15T08:55:47.544Z,61.95
2023-03-15T08:56:47.534Z,61.95
2023-03-15T08:57:47.616Z,61.95
2023-03-15T08:58:47.512Z,61.95
2023-03-15T08:59:47.538Z,61.85
2023-03-15T09:00:47.491Z,61.85
2023-03-15T09:01:47.539Z,61.82
2023-03-15T09:02:47.469Z,61.82
2023-03-15T09:03:47.462Z,61.82
2023-03-15T09:04:47.533Z,61.72
2023-03-15T09:05:47.436Z,61.72
2023-03-15T09:06:47.446Z,61.72
2023-03-15T09:07:47.498Z,61.72
2023-03-15T09:08:47.402Z,61.72
2023-03-15T09:09:47.421Z,61.72
2023-03-15T09:10:47.402Z,61.69
2023-03-15T09:11:47.372Z,61.69
2023-03-15T09:12:47.365Z,61.69
2023-03-15T09:13:47.355Z,61.69
2023-03-15T09:14:47.366Z,61.69
2023-03-15T09:15:47.348Z,61.59
2023-03-15T09:16:47.383Z,61.49
2023-03-15T09:17:47.308Z,61.36
2023-03-15T09:18:47.313Z,61.36
2023-03-15T09:19:47.285Z,61.46
2023-03-15T09:20:47.294Z,61.56
2023-03-15T09:21:47.274Z,61.46
2023-03-15T09:22:47.252Z,61.46
2023-03-15T09:23:47.270Z,61.33
2023-03-15T09:24:47.952Z,61.13
2023-03-15T09:25:47.274Z,61.13
2023-03-15T09:26:47.220Z,61.03
2023-03-15T09:27:47.203Z,60.93
2023-03-15T09:28:47.195Z,60.93
2023-03-15T09:29:47.203Z,60.82
2023-03-15T09:30:47.220Z,60.80
2023-03-15T09:31:47.161Z,60.80
2023-03-15T09:32:47.304Z,60.80
2023-03-15T09:33:47.141Z,60.80
2023-03-15T09:34:47.165Z,60.80
2023-03-15T09:35:47.181Z,60.69
2023-03-15T09:36:48.708Z,60.80
2023-03-15T09:37:47.140Z,60.80
2023-03-15T09:38:47.096Z,60.80
2023-03-15T09:39:47.078Z,60.80
2023-03-15T09:40:47.086Z,60.77
2023-03-15T09:41:47.102Z,60.77
2023-03-15T09:42:47.046Z,60.77
2023-03-15T09:43:47.056Z,60.87
2023-03-15T09:44:47.054Z,60.77
2023-03-15T09:45:47.015Z,60.87
2023-03-15T09:46:47.048Z,60.87
2023-03-15T09:47:47.035Z,60.97
2023-03-15T09:48:46.981Z,60.97
2023-03-15T09:49:46.977Z,60.97
2023-03-15T09:50:46.963Z,61.07
2023-03-15T09:51:46.987Z,61.27
2023-03-15T09:52:46.941Z,61.37
2023-03-15T09:53:46.950Z,61.37
2023-03-15T09:54:46.923Z,61.17
2023-03-15T09:55:46.909Z,61.17
2023-03-15T09:56:46.905Z,61.17
2023-03-15T09:57:46.954Z,61.17
2023-03-15T09:58:46.897Z,61.27
2023-03-15T09:59:46.869Z,61.27
2023-03-15T10:00:46.855Z,61.27
2023-03-15T10:01:46.920Z,61.37
2023-03-15T10:02:46.832Z,61.37
2023-03-15T10:03:46.933Z,61.37
2023-03-15T10:04:46.815Z,61.47
2023-03-15T10:05:46.798Z,61.47
2023-03-15T10:06:46.798Z,61.47
2023-03-15T10:07:46.776Z,61.35
2023-03-15T10:08:46.789Z,61.44
2023-03-15T10:09:46.758Z,61.68
2023-03-15T10:10:46.743Z,61.47
2023-03-15T10:11:47.958Z,61.65
2023-03-15T10:12:46.728Z,61.75
2023-03-15T10:13:46.738Z,61.75
2023-03-15T10:14:46.731Z,61.85
2023-03-15T10:15:46.739Z,61.65
2023-03-15T10:16:46.681Z,61.75
2023-03-15T10:17:46.693Z,61.85
2023-03-15T10:18:46.661Z,61.95
2023-03-15T10:19:46.648Z,61.95
2023-03-15T10:20:46.640Z,61.95
2023-03-15T10:21:46.634Z,62.05
2023-03-15T10:22:46.613Z,62.05
2023-03-15T10:23:46.654Z,62.05
2023-03-15T10:24:46.600Z,62.05
2023-03-15T10:25:46.585Z,62.25
2023-03-15T10:27:46.566Z,62.25
2023-03-15T10:28:46.566Z,62.35
2023-03-15T10:29:46.565Z,62.35
2023-03-15T10:30:46.523Z,62.35
2023-03-15T10:31:46.622Z,62.35
2023-03-15T10:32:46.564Z,62.35
2023-03-15T10:33:46.514Z,62.45
2023-03-15T10:34:47.822Z,62.45
2023-03-15T10:35:46.501Z,62.45
2023-03-15T10:36:46.502Z,62.45
2023-03-15T10:37:46.462Z,62.45
2023-03-15T10:38:46.441Z,62.55
2023-03-15T10:39:46.428Z,62.55
2023-03-15T10:40:46.433Z,62.55
2023-03-15T10:41:46.420Z,62.45
2023-03-15T10:42:46.429Z,62.55
2023-03-15T10:43:46.382Z,62.45
2023-03-15T10:44:46.369Z,62.55
2023-03-15T10:45:46.390Z,62.45
2023-03-15T10:46:46.427Z,62.45
2023-03-15T10:47:57.680Z,62.45
2023-03-15T10:48:47.326Z,62.55
2023-03-15T10:49:46.316Z,62.55
2023-03-15T10:50:46.304Z,62.55
2023-03-15T10:51:46.301Z,62.55
2023-03-15T10:52:46.319Z,62.55
2023-03-15T10:53:46.271Z,62.55
2023-03-15T10:54:48.049Z,62.55
2023-03-15T10:55:46.300Z,62.45
2023-03-15T10:56:46.239Z,62.45
2023-03-15T10:57:46.232Z,62.55
2023-03-15T10:58:47.807Z,62.45
2023-03-15T10:59:46.205Z,62.35
2023-03-15T11:00:46.196Z,62.45
2023-03-15T11:01:46.271Z,62.55
2023-03-15T11:02:46.202Z,62.55
2023-03-15T11:03:46.162Z,62.55
2023-03-15T11:04:46.160Z,62.55
2023-03-15T11:05:46.139Z,62.55
2023-03-15T11:06:46.156Z,62.65
2023-03-15T11:07:46.119Z,62.65
2023-03-15T11:08:46.119Z,62.76
2023-03-15T11:09:46.123Z,62.65
2023-03-15T11:10:46.107Z,62.65
2023-03-15T11:11:46.078Z,62.76
2023-03-15T11:12:46.065Z,62.76
2023-03-15T11:13:46.074Z,62.55
2023-03-15T11:14:46.046Z,62.65
2023-03-15T11:15:46.035Z,62.76
2023-03-15T11:16:46.023Z,62.73
2023-03-15T11:17:46.065Z,62.76
2023-03-15T11:18:46.020Z,62.76
2023-03-15T11:19:46.013Z,62.63
2023-03-15T11:20:45.977Z,62.73
2023-03-15T11:21:45.967Z,62.73
2023-03-15T11:22:45.958Z,62.73
2023-03-15T11:23:45.948Z,62.73
2023-03-15T11:24:46.025Z,62.83
2023-03-15T11:25:45.931Z,62.73
2023-03-15T11:26:45.914Z,62.73
2023-03-15T11:27:45.909Z,62.73
2023-03-15T11:28:45.893Z,62.63
2023-03-15T11:29:45.901Z,62.73
2023-03-15T11:30:47.865Z,62.83
2023-03-15T11:31:45.950Z,62.83
2023-03-15T11:32:45.922Z,62.93
2023-03-15T11:33:45.876Z,62.93
2023-03-15T11:34:45.831Z,62.93
2023-03-15T11:35:45.847Z,62.93
2023-03-15T11:36:46.260Z,62.93
2023-03-15T11:37:45.823Z,62.93
2023-03-15T11:38:45.847Z,62.93
2023-03-15T11:39:45.825Z,62.93
2023-03-15T11:40:45.767Z,63.03
2023-03-15T11:41:45.770Z,63.03
2023-03-15T11:42:45.747Z,63.03
2023-03-15T11:43:45.732Z,63.03
2023-03-15T11:44:45.820Z,63.03
2023-03-15T11:45:45.723Z,63.03
2023-03-15T11:46:45.729Z,63.03
2023-03-15T11:47:45.733Z,63.03
2023-03-15T11:48:45.716Z,63.03
2023-03-15T11:49:45.720Z,63.03
2023-03-15T11:50:45.674Z,63.03
2023-03-15T11:51:45.732Z,63.03
2023-03-15T11:52:45.674Z,63.03
2023-03-15T11:53:45.627Z,63.03
2023-03-15T11:54:45.624Z,63.03
2023-03-15T11:55:45.607Z,63.13
2023-03-15T11:56:45.610Z,63.13
2023-03-15T11:57:45.630Z,63.23
2023-03-15T11:58:45.576Z,63.13
2023-03-15T11:59:45.610Z,63.23
2023-03-15T12:00:45.561Z,63.23
2023-03-15T12:01:45.543Z,63.23
2023-03-15T12:02:45.572Z,63.23
2023-03-15T12:03:45.596Z,63.23
2023-03-15T12:04:45.557Z,63.23
2023-03-15T12:05:45.523Z,63.23
2023-03-15T12:06:45.507Z,63.23
2023-03-15T12:07:45.486Z,63.23
2023-03-15T12:08:45.483Z,63.23
2023-03-15T12:09:45.456Z,63.13
2023-03-15T12:10:45.446Z,63.23
2023-03-15T12:11:45.439Z,63.23
2023-03-15T12:12:45.423Z,63.23
2023-03-15T12:13:45.442Z,63.13
2023-03-15T12:14:45.404Z,63.03
2023-03-15T12:15:45.405Z,63.03
2023-03-15T12:16:45.443Z,63.06
2023-03-15T12:17:45.389Z,63.16
2023-03-15T12:18:45.394Z,63.06
2023-03-15T12:19:45.361Z,63.06
2023-03-15T12:20:45.337Z,63.16
2023-03-15T12:21:45.357Z,63.06
2023-03-15T12:22:45.317Z,63.16
2023-03-15T12:23:45.363Z,63.16
2023-03-15T12:24:45.304Z,63.16
2023-03-15T12:25:54.369Z,63.16
2023-03-15T12:26:46.286Z,63.16
2023-03-15T12:27:45.265Z,63.16
2023-03-15T12:28:45.256Z,63.16
2023-03-15T12:29:45.828Z,63.16
2023-03-15T12:30:45.272Z,63.06
2023-03-15T12:31:45.252Z,62.96
2023-03-15T12:32:45.280Z,62.96
2023-03-15T12:33:45.195Z,62.85
2023-03-15T12:34:45.198Z,62.85
2023-03-15T12:35:45.192Z,62.76
2023-03-15T12:36:45.186Z,62.76
2023-03-15T12:37:45.181Z,62.76
2023-03-15T12:38:45.165Z,62.76
2023-03-15T12:39:45.130Z,62.76
2023-03-15T12:40:45.123Z,62.76
2023-03-15T12:41:45.106Z,62.76
2023-03-15T12:42:45.098Z,62.76
2023-03-15T12:43:45.137Z,62.76
2023-03-15T12:44:45.105Z,62.76
2023-03-15T12:45:45.067Z,62.76
2023-03-15T12:46:45.064Z,62.76
2023-03-15T12:47:45.042Z,62.76
2023-03-15T12:48:45.035Z,62.76
2023-03-15T12:49:45.020Z,62.76
2023-03-15T12:50:45.067Z,62.65
2023-03-15T12:51:45.016Z,62.65
2023-03-15T12:52:44.988Z,62.65
2023-03-15T12:53:45.005Z,62.55